createdAt,value
2018-02-07T00:01:47.692Z,51.75
2018-02-07T00:04:14.109Z,50.08
2018-02-07T00:06:40.524Z,46.15
2018-02-07T00:09:06.906Z,45.90
2018-02-07T00:11:34.056Z,47.95
2018-02-07T00:14:00.441Z,48.10
2018-02-07T00:16:26.890Z,47.15
2018-02-07T00:18:53.295Z,50.65
2018-02-07T00:21:19.682Z,45.25
2018-02-07T00:23:46.126Z,47.00
2018-02-07T00:26:12.545Z,46.85
2018-02-07T00:28:38.961Z,51.58
2018-02-07T00:31:05.359Z,49.30
2018-02-07T00:33:31.766Z,51.45
2018-02-07T00:35:58.172Z,53.87
2018-02-07T00:38:24.565Z,52.97
2018-02-07T00:40:50.969Z,48.90
2018-02-07T00:43:18.109Z,48.90
2018-02-07T00:45:44.501Z,41.30
2018-02-07T00:48:10.930Z,54.22
2018-02-07T00:50:37.306Z,49.85
2018-02-07T00:53:03.778Z,57.58
2018-02-07T00:55:30.183Z,52.60
2018-02-07T00:57:56.595Z,54.55
2018-02-07T01:00:23.001Z,52.35
2018-02-07T01:02:49.403Z,47.38
2018-02-07T01:05:16.578Z,56.25
2018-02-07T01:07:43.011Z,47.20
2018-02-07T01:10:09.436Z,51.45
2018-02-07T01:12:36.604Z,54.47
2018-02-07T01:15:03.033Z,56.95
2018-02-07T01:17:29.458Z,62.97
2018-02-07T01:19:55.872Z,61.53
2018-02-07T01:22:23.050Z,49.47
2018-02-07T01:24:49.437Z,51.03
2018-02-07T01:27:15.834Z,47.97
2018-02-07T01:29:42.306Z,53.15
2018-02-07T01:32:08.687Z,55.53
2018-02-07T01:34:35.085Z,61.58
2018-02-07T01:37:01.471Z,70.32
2018-02-07T01:39:27.993Z,82.07
2018-02-07T01:41:54.370Z,68.53
2018-02-07T01:44:20.810Z,73.22
2018-02-07T01:46:47.945Z,67.43
2018-02-07T01:49:14.387Z,56.50
2018-02-07T01:51:40.776Z,61.67
2018-02-07T01:54:07.174Z,65.37
2018-02-07T01:56:33.559Z,64.18
2018-02-07T01:58:59.938Z,64.12
2018-02-07T02:01:26.349Z,67.53
2018-02-07T02:03:52.741Z,65.03
2018-02-07T02:06:19.154Z,75.65
2018-02-07T02:08:46.272Z,73.57
2018-02-07T02:11:12.685Z,67.93
2018-02-07T02:13:39.073Z,48.92
2018-02-07T02:16:06.222Z,65.43
2018-02-07T02:18:33.397Z,71.82
2018-02-07T02:20:59.769Z,77.97
2018-02-07T02:23:26.198Z,68.87
2018-02-07T02:25:52.561Z,67.22
2018-02-07T02:28:19.005Z,72.47
2018-02-07T02:30:45.414Z,78.87
2018-02-07T02:33:11.820Z,70.07
2018-02-07T02:35:38.249Z,63.20
2018-02-07T02:38:04.660Z,70.10
2018-02-07T02:40:31.089Z,72.07
2018-02-07T02:42:57.499Z,73.35
2018-02-07T02:45:23.896Z,76.25
2018-02-07T02:47:50.296Z,80.38
2018-02-07T02:50:17.460Z,74.32
2018-02-07T02:52:43.866Z,70.37
2018-02-07T02:55:11.046Z,67.20
2018-02-07T02:57:37.452Z,69.28
2018-02-07T03:00:03.954Z,75.53
2018-02-07T03:02:30.369Z,72.15
2018-02-07T03:04:56.757Z,61.72
2018-02-07T18:36:33.458Z,125.45
2018-02-07T18:38:59.883Z,136.43
2018-02-07T18:41:26.298Z,135.45
2018-02-07T18:43:53.495Z,134.25
2018-02-07T18:46:19.962Z,140.05
2018-02-07T18:48:46.380Z,133.27
2018-02-07T18:51:12.776Z,139.52
2018-02-07T18:53:39.183Z,129.43
2018-02-07T18:56:05.673Z,136.73
2018-02-07T18:58:32.082Z,136.40
2018-02-07T19:00:58.481Z,130.27
2018-02-07T19:03:24.877Z,132.70
2018-02-07T19:05:51.294Z,130.93
2018-02-07T19:09:03.173Z,134.95
2018-02-07T19:11:30.318Z,132.65
2018-02-07T19:13:59.444Z,134.75
2018-02-07T19:16:28.258Z,123.65
2018-02-07T19:18:55.850Z,128.57
2018-02-07T19:21:23.395Z,130.60
2018-02-07T19:23:51.458Z,132.15
2018-02-07T19:26:17.956Z,127.97
2018-02-07T19:28:46.989Z,135.07
2018-02-07T19:31:14.205Z,130.48
2018-02-07T19:33:40.584Z,128.20
2018-02-07T19:36:06.985Z,129.40
2018-02-07T19:38:33.408Z,129.18
2018-02-07T19:40:59.798Z,129.73
2018-02-07T19:43:26.232Z,125.40
2018-02-07T19:45:52.614Z,134.95
2018-02-07T19:48:19.020Z,130.65
2018-02-07T19:50:46.148Z,128.75
2018-02-07T19:53:12.582Z,123.05
2018-02-07T19:55:39.018Z,132.10
2018-02-07T19:58:05.401Z,127.50
2018-02-07T20:00:31.891Z,129.85
2018-02-07T20:02:59.022Z,129.83
2018-02-07T20:05:25.488Z,131.33
2018-02-07T20:07:52.618Z,132.93
2018-02-07T20:10:19.034Z,134.12
2018-02-07T20:12:45.432Z,129.27
2018-02-07T20:15:11.875Z,130.10
2018-02-07T20:17:38.282Z,121.95
2018-02-07T20:20:05.403Z,140.37
2018-02-07T20:22:31.817Z,127.25
2018-02-07T20:24:58.233Z,135.30
2018-02-07T20:27:24.630Z,139.27
2018-02-07T20:29:51.781Z,134.15
2018-02-07T20:32:18.897Z,129.70
2018-02-07T20:34:45.317Z,125.62
2018-02-07T20:37:11.722Z,129.02
2018-02-07T20:39:38.161Z,133.50
2018-02-07T20:42:04.570Z,135.35
2018-02-07T20:44:31.733Z,136.57
2018-02-07T20:46:58.877Z,126.65
2018-02-07T20:49:26.061Z,126.85
2018-02-07T20:51:53.208Z,136.60
2018-02-07T20:54:19.600Z,127.77
2018-02-07T20:56:46.037Z,135.98
2018-02-07T20:59:12.408Z,132.85
2018-02-07T21:01:38.811Z,121.35
2018-02-07T21:04:05.212Z,128.95
2018-02-07T21:06:31.626Z,124.50
2018-02-07T21:08:58.062Z,129.55
2018-02-07T21:11:24.456Z,126.07
2018-02-07T21:13:51.610Z,124.25
2018-02-07T21:16:18.850Z,128.35
2018-02-07T21:18:45.249Z,126.03
2018-02-07T21:21:11.651Z,120.82
2018-02-07T21:23:38.056Z,124.12
2018-02-07T21:26:04.458Z,122.55
2018-02-07T21:28:30.882Z,126.18
2018-02-07T21:30:57.278Z,118.00
2018-02-07T21:33:30.712Z,117.47
2018-02-07T21:35:57.101Z,127.43
2018-02-07T21:38:24.250Z,121.03
2018-02-07T21:40:51.386Z,126.07
2018-02-07T21:43:17.862Z,127.77
2018-02-07T21:45:44.266Z,130.05
2018-02-07T21:48:11.428Z,121.10
2018-02-07T21:50:38.560Z,121.82
2018-02-07T21:53:04.973Z,123.85
2018-02-07T21:55:31.384Z,125.50
2018-02-07T21:57:57.797Z,129.18
2018-02-07T22:00:24.177Z,133.90
2018-02-07T22:02:50.614Z,131.18
2018-02-07T22:05:17.039Z,127.38
2018-02-07T22:07:43.459Z,125.85
2018-02-07T22:10:09.878Z,127.07
2018-02-07T22:12:36.309Z,131.18
2018-02-07T22:15:02.775Z,129.48
2018-02-07T22:17:29.142Z,120.28
2018-02-07T22:19:56.294Z,135.20
2018-02-07T22:22:23.435Z,121.22
2018-02-07T22:24:49.837Z,133.35
2018-02-07T22:27:16.240Z,132.07
2018-02-07T22:29:42.657Z,134.65
2018-02-07T22:32:09.787Z,128.80
2018-02-07T22:34:36.213Z,130.15
2018-02-07T22:37:02.618Z,126.38
2018-02-07T22:39:29.025Z,129.82
2018-02-07T22:41:55.445Z,135.47
2018-02-07T22:44:22.639Z,131.12
2018-02-07T22:46:49.013Z,130.80
2018-02-07T22:49:15.413Z,135.70
2018-02-07T22:51:41.798Z,144.10
2018-02-07T22:54:08.954Z,135.57
2018-02-07T22:56:36.082Z,131.27
2018-02-07T22:59:02.499Z,142.32
2018-02-07T23:01:28.918Z,129.95
2018-02-07T23:03:55.313Z,129.90
2018-02-07T23:06:21.765Z,127.90
2018-02-07T23:08:48.186Z,131.85
2018-02-07T23:11:14.626Z,133.63
2018-02-07T23:13:41.035Z,143.00
2018-02-07T23:16:08.208Z,132.87
2018-02-07T23:18:34.608Z,133.77
2018-02-07T23:21:01.019Z,133.27
2018-02-07T23:23:27.394Z,137.48
2018-02-07T23:25:54.554Z,125.38
2018-02-07T23:28:20.927Z,135.50
2018-02-07T23:30:47.333Z,123.90
2018-02-07T23:33:13.710Z,128.10
2018-02-07T23:35:41.193Z,131.85
2018-02-07T23:38:08.304Z,131.13
2018-02-07T23:40:34.702Z,129.70
2018-02-07T23:43:01.085Z,130.95
2018-02-07T23:45:27.481Z,128.77
2018-02-07T23:47:53.878Z,129.57
2018-02-07T23:50:21.046Z,137.80
2018-02-07T23:52:48.191Z,133.73
2018-02-07T23:55:15.311Z,132.75
2018-02-07T23:57:41.705Z,135.68
